Time;durP1;ratioP1;P1;durP2;ratioP2;P2;SDS_P1;SDS_P2;PMS_P1;PMS_P2;Temp;Humidity;BMP_temperature;BMP_pressure;BME280_temperature;BME280_humidity;BME280_pressure;Samples;Min_cycle;Max_cycle;Signal;HPM_P1;HPM_P2
2022/01/23 00:00:20;;;;;;;;;;;;;;;9.70;59.50;102452.25;5024683;28;6899;-69
2022/01/23 00:02:48;;;;;;;;;;;;;;;9.70;60.33;102447.13;5035178;28;6996;-69
2022/01/23 00:05:16;;;;;;;;;;;;;;;9.70;60.47;102450.56;5024634;28;6832;-69
2022/01/23 00:07:44;;;;;;;;;;;;;;;9.70;59.62;102462.50;5027675;28;6812;-69
2022/01/23 00:10:11;;;;;;;;;;;;;;;9.69;60.23;102465.81;5030891;28;7872;-69
2022/01/23 00:12:46;;;;;;;;;;;;;;;9.68;59.63;102462.34;5013294;28;7015;-69
2022/01/23 00:17:57;;;;;;;;;;;;;;;9.70;59.59;102465.03;5029160;28;7458;-69
2022/01/23 00:20:23;;;;;;;;;;;;;;;9.67;60.16;102465.69;5029233;28;6942;-69
2022/01/23 00:22:54;;;;;;;;;;;;;;;9.66;60.18;102466.44;5061834;28;6974;-69
2022/01/23 00:30:50;;;;;;;;;;;;;;;9.66;59.53;102461.31;5031346;28;8162;-69
2022/01/23 00:33:17;;;;;;;;;;;;;;;9.68;60.28;102466.59;5027959;28;6987;-69
2022/01/23 00:35:46;;;;;;;;;;;;;;;9.69;60.14;102465.81;5006998;28;6844;-69
2022/01/23 00:38:14;;;;;;;;;;;;;;;9.67;60.09;102458.00;5043958;28;7287;-69
2022/01/23 00:40:42;;;;;;;;;;;;;;;9.67;60.03;102459.69;5026735;28;7180;-69
2022/01/23 00:43:26;;;;;;;;;;;;;;;9.67;59.40;102457.13;5040031;28;7396;-69
2022/01/23 00:46:07;;;;;;;;;;;;;;;9.65;59.01;102456.97;5038397;28;6916;-69
2022/01/23 00:48:35;;;;;;;;;;;;;;;9.66;60.06;102457.88;5027266;28;6819;-69
2022/01/23 00:51:01;;;;;;;;;;;;;;;9.66;59.95;102450.22;5039277;28;6856;-69
2022/01/23 00:53:27;;;;;;;;;;;;;;;9.65;59.76;102445.81;5024046;28;6784;-69
2022/01/23 00:55:53;;;;;;;;;;;;;;;9.65;60.01;102449.28;5019147;28;7265;-69
2022/01/23 00:58:18;;;;;;;;;;;;;;;9.66;59.72;102452.78;5023380;28;7303;-69
2022/01/23 01:00:44;;;;;;;;;;;;;;;9.68;59.75;102451.22;5018867;28;6822;-69
2022/01/23 01:03:10;;;;;;;;;;;;;;;9.69;60.25;102442.78;5058818;28;7094;-69
2022/01/23 01:05:36;;;;;;;;;;;;;;;9.71;59.51;102447.25;5025940;28;6872;-69
2022/01/23 01:08:05;;;;;;;;;;;;;;;9.73;59.08;102439.69;5021629;28;7395;-69
2022/01/23 01:10:58;;;;;;;;;;;;;;;9.72;60.02;102435.34;5022577;28;7522;-69
2022/01/23 01:13:29;;;;;;;;;;;;;;;9.72;60.11;102446.50;5022509;28;7938;-70
2022/01/23 01:32:15;;;;;;;;;;;;;;;9.63;59.33;102416.63;5037871;28;6887;-69
2022/01/23 01:34:48;;;;;;;;;;;;;;;9.61;59.57;102419.09;5040110;28;6974;-69
2022/01/23 01:37:14;;;;;;;;;;;;;;;9.61;59.33;102423.31;5046077;28;7303;-69
2022/01/23 01:39:40;;;;;;;;;;;;;;;9.61;60.01;102423.31;5019778;28;7211;-69
2022/01/23 01:42:06;;;;;;;;;;;;;;;9.62;59.25;102427.66;5018784;28;6847;-69
2022/01/23 01:44:32;;;;;;;;;;;;;;;9.61;59.16;102423.31;5038346;28;6889;-69
2022/01/23 01:46:58;;;;;;;;;;;;;;;9.62;59.75;102430.22;5038767;28;7012;-69
2022/01/23 01:49:30;;;;;;;;;;;;;;;9.63;59.77;102437.13;5033605;28;6804;-69
2022/01/23 01:51:58;;;;;;;;;;;;;;;9.63;60.09;102440.59;5039518;28;7017;-69
2022/01/23 01:54:26;;;;;;;;;;;;;;;9.65;60.21;102443.25;5024825;28;6811;-69
2022/01/23 01:57:04;;;;;;;;;;;;;;;9.66;59.16;102445.97;5022397;28;7271;-69
2022/01/23 02:10:25;;;;;;;;;;;;;;;9.65;59.41;102443.25;5023921;28;6828;-69
2022/01/23 02:13:05;;;;;;;;;;;;;;;9.66;60.14;102437.41;5033909;28;6799;-69
2022/01/23 02:18:28;;;;;;;;;;;;;;;9.68;59.63;102434.19;5026036;28;6812;-69
2022/01/23 02:51:09;;;;;;;;;;;;;;;9.42;60.31;102404.75;5029700;28;6908;-69
2022/01/23 02:53:51;;;;;;;;;;;;;;;9.42;59.50;102401.25;5020584;28;7146;-69
2022/01/23 02:56:31;;;;;;;;;;;;;;;9.41;60.40;102402.91;5019917;28;7585;-69
2022/01/23 02:58:59;;;;;;;;;;;;;;;9.42;59.72;102414.06;5004170;28;6975;-69
2022/01/23 03:01:31;;;;;;;;;;;;;;;9.40;60.52;102420.72;5012187;28;6812;-69
2022/01/23 03:04:02;;;;;;;;;;;;;;;9.40;60.41;102426.72;5005160;28;7045;-69
2022/01/23 03:14:24;;;;;;;;;;;;;;;9.50;59.70;102420.72;5005135;28;7884;-69
2022/01/23 03:25:20;;;;;;;;;;;;;;;9.44;59.92;102415.09;5007462;28;7023;-70
2022/01/23 03:28:06;;;;;;;;;;;;;;;9.41;60.24;102404.59;5016955;28;6910;-70
2022/01/23 03:30:50;;;;;;;;;;;;;;;9.39;59.46;102403.56;5022843;28;6812;-70
2022/01/23 03:33:15;;;;;;;;;;;;;;;9.36;60.17;102399.09;4998962;28;6918;-70
2022/01/23 03:35:41;;;;;;;;;;;;;;;9.35;59.56;102401.50;5021630;28;6902;-70
2022/01/23 03:38:07;;;;;;;;;;;;;;;9.32;60.17;102397.03;5022937;28;7028;-70
2022/01/23 03:40:33;;;;;;;;;;;;;;;9.31;60.59;102395.22;5023739;28;6896;-69
2022/01/23 03:43:08;;;;;;;;;;;;;;;9.30;60.37;102388.31;4990818;28;6780;-70
2022/01/23 03:50:45;;;;;;;;;;;;;;;9.26;59.68;102399.94;5028199;28;7274;-70
2022/01/23 03:53:11;;;;;;;;;;;;;;;9.27;60.07;102406.88;5018693;28;7011;-70
2022/01/23 03:55:38;;;;;;;;;;;;;;;9.28;60.06;102407.78;4980365;28;7138;-70
2022/01/23 03:58:04;;;;;;;;;;;;;;;9.29;60.11;102418.16;5004984;28;6968;-70
2022/01/23 04:00:30;;;;;;;;;;;;;;;9.31;59.60;102426.84;5026668;28;7922;-70
2022/01/23 04:02:56;;;;;;;;;;;;;;;9.36;60.53;102421.22;5001961;28;6912;-70
2022/01/23 04:05:21;;;;;;;;;;;;;;;9.38;59.96;102427.38;5021324;28;9234;-70
2022/01/23 04:07:47;;;;;;;;;;;;;;;9.40;59.45;102433.53;4994374;28;6772;-70
2022/01/23 04:10:16;;;;;;;;;;;;;;;9.41;59.51;102418.28;5000621;28;6906;-70
2022/01/23 04:13:09;;;;;;;;;;;;;;;9.43;59.42;102414.19;5003250;28;6900;-70
2022/01/23 04:34:29;;;;;;;;;;;;;;;9.49;59.58;102435.94;5059817;28;7202;-70
2022/01/23 05:04:45;;;;;;;;;;;;;;;9.62;58.91;102440.47;5039272;28;6819;-70
2022/01/23 05:07:13;;;;;;;;;;;;;;;9.65;59.34;102438.13;5056632;28;6795;-70
2022/01/23 05:09:39;;;;;;;;;;;;;;;9.65;59.70;102436.50;5024903;28;6811;-70
2022/01/23 05:12:10;;;;;;;;;;;;;;;9.66;58.95;102427.16;5034617;28;7129;-70
2022/01/23 05:14:44;;;;;;;;;;;;;;;9.65;59.18;102426.25;5024435;28;7034;-70
2022/01/23 05:17:14;;;;;;;;;;;;;;;9.66;59.03;102428.03;5015014;28;7155;-70
2022/01/23 05:19:42;;;;;;;;;;;;;;;9.66;59.76;102422.91;5019437;28;7063;-70
2022/01/23 05:24:38;;;;;;;;;;;;;;;9.62;59.80;102420.88;5014768;28;7153;-70
2022/01/23 05:27:08;;;;;;;;;;;;;;;9.64;59.79;102418.44;5021255;28;7078;-70
2022/01/23 05:29:36;;;;;;;;;;;;;;;9.64;59.75;102418.44;5011707;28;6900;-70
2022/01/23 05:32:05;;;;;;;;;;;;;;;9.61;58.79;102428.41;5027926;28;7226;-69
2022/01/23 05:34:31;;;;;;;;;;;;;;;9.62;58.86;102425.09;5031373;28;8678;-70
2022/01/23 05:36:57;;;;;;;;;;;;;;;9.63;59.12;102424.31;5047421;28;6788;-70
2022/01/23 05:39:25;;;;;;;;;;;;;;;9.62;59.20;102420.88;5028917;28;7007;-70
2022/01/23 05:41:57;;;;;;;;;;;;;;;9.61;59.84;102423.31;5005364;28;7394;-70
2022/01/23 05:44:23;;;;;;;;;;;;;;;9.57;59.48;102432.38;5020381;28;7466;-70
2022/01/23 05:46:49;;;;;;;;;;;;;;;9.58;58.98;102427.41;5003107;28;7139;-70
2022/01/23 05:49:15;;;;;;;;;;;;;;;9.61;59.97;102429.34;5014243;28;7244;-70
2022/01/23 05:51:40;;;;;;;;;;;;;;;9.61;59.71;102429.34;5019285;28;6776;-70
2022/01/23 05:54:06;;;;;;;;;;;;;;;9.64;58.95;102426.13;5026476;28;9496;-70
2022/01/23 05:56:32;;;;;;;;;;;;;;;9.62;59.34;102428.56;5003598;28;7291;-70
2022/01/23 05:58:58;;;;;;;;;;;;;;;9.62;59.78;102440.47;5023066;28;6791;-70
2022/01/23 06:01:23;;;;;;;;;;;;;;;9.62;59.30;102432.78;5017400;28;7575;-70
2022/01/23 06:03:49;;;;;;;;;;;;;;;9.63;58.92;102439.69;5029837;28;7919;-70
2022/01/23 06:06:15;;;;;;;;;;;;;;;9.63;59.79;102447.38;5027595;28;6993;-70
2022/01/23 06:08:40;;;;;;;;;;;;;;;9.62;59.75;102443.00;5026581;28;7245;-70
2022/01/23 06:11:06;;;;;;;;;;;;;;;9.61;59.24;102444.69;5016611;28;7156;-70
2022/01/23 06:13:33;;;;;;;;;;;;;;;9.62;59.12;102450.69;5033194;28;6822;-70
2022/01/23 06:16:00;;;;;;;;;;;;;;;9.62;59.07;102443.94;5043418;28;7028;-70
2022/01/23 06:18:26;;;;;;;;;;;;;;;9.63;59.12;102455.97;5026208;28;6811;-70
2022/01/23 06:20:52;;;;;;;;;;;;;;;9.64;58.78;102452.63;5024039;28;6783;-70
2022/01/23 06:23:18;;;;;;;;;;;;;;;9.63;59.31;102455.97;5030538;28;6995;-70
2022/01/23 06:25:47;;;;;;;;;;;;;;;9.64;59.57;102461.97;5034474;28;6968;-70
2022/01/23 06:28:49;;;;;;;;;;;;;;;9.64;58.70;102454.28;5026283;28;7266;-70
2022/01/23 06:31:15;;;;;;;;;;;;;;;9.65;59.88;102445.81;5044997;28;7494;-70
2022/01/23 06:33:41;;;;;;;;;;;;;;;9.67;58.58;102447.75;5024912;28;6791;-70
2022/01/23 06:36:06;;;;;;;;;;;;;;;9.69;59.40;102450.44;5024940;28;6768;-70
2022/01/23 06:38:32;;;;;;;;;;;;;;;9.68;59.32;102454.66;5026184;28;6783;-70
2022/01/23 06:40:58;;;;;;;;;;;;;;;9.70;59.60;102452.25;5024231;28;6864;-70
2022/01/23 06:43:23;;;;;;;;;;;;;;;9.73;59.31;102457.63;5057818;28;7000;-70
2022/01/23 06:45:49;;;;;;;;;;;;;;;9.75;59.20;102457.75;5017385;28;7297;-70
2022/01/23 06:48:15;;;;;;;;;;;;;;;9.75;58.69;102466.31;5027638;28;6784;-70
2022/01/23 06:50:40;;;;;;;;;;;;;;;9.75;58.83;102466.31;5037792;28;6854;-70
2022/01/23 06:53:06;;;;;;;;;;;;;;;9.73;58.42;102472.97;5023142;28;7664;-70
2022/01/23 06:55:32;;;;;;;;;;;;;;;9.73;59.31;102475.53;5034541;28;6795;-70
2022/01/23 06:57:57;;;;;;;;;;;;;;;9.72;59.41;102479.78;5032651;28;6854;-70
2022/01/23 07:00:23;;;;;;;;;;;;;;;9.73;59.23;102480.66;5028254;28;6927;-70
2022/01/23 07:02:49;;;;;;;;;;;;;;;9.74;59.45;102477.34;5054913;28;7216;-70
2022/01/23 07:05:14;;;;;;;;;;;;;;;9.74;58.64;102477.34;5056849;28;6922;-70
2022/01/23 07:07:40;;;;;;;;;;;;;;;9.72;59.22;102484.91;5024882;28;6870;-70
2022/01/23 07:10:07;;;;;;;;;;;;;;;9.72;58.46;102478.88;5015699;28;6807;-70
2022/01/23 07:12:32;;;;;;;;;;;;;;;9.70;58.66;102475.28;5013145;28;6795;-70
2022/01/23 07:14:58;;;;;;;;;;;;;;;9.65;59.04;102477.47;5018845;28;6904;-70
2022/01/23 07:17:23;;;;;;;;;;;;;;;9.65;59.04;102486.78;5012710;28;8060;-70
2022/01/23 07:19:49;;;;;;;;;;;;;;;9.64;58.49;102488.47;4997054;28;6898;-70
2022/01/23 07:22:15;;;;;;;;;;;;;;;9.59;59.32;102489.72;5034181;28;6971;-70
2022/01/23 07:24:40;;;;;;;;;;;;;;;9.54;59.32;102493.56;5017527;28;6987;-70
2022/01/23 07:27:15;;;;;;;;;;;;;;;9.50;59.09;102492.41;4997120;28;6803;-70
2022/01/23 07:29:42;;;;;;;;;;;;;;;9.46;59.08;102490.34;5010446;28;6820;-70
2022/01/23 07:32:09;;;;;;;;;;;;;;;9.43;59.28;102493.56;5048616;28;6873;-70
2022/01/23 07:34:36;;;;;;;;;;;;;;;9.42;59.13;102495.97;4993150;28;7595;-70
2022/01/23 07:37:02;;;;;;;;;;;;;;;9.43;59.79;102490.06;5031070;28;6954;-70
2022/01/23 07:39:27;;;;;;;;;;;;;;;9.44;59.13;102500.47;5011908;28;6941;-69
2022/01/23 07:41:53;;;;;;;;;;;;;;;9.49;59.09;102503.41;5007925;28;6843;-69
2022/01/23 07:44:19;;;;;;;;;;;;;;;9.53;60.00;102508.03;5036648;28;6804;-70
2022/01/23 07:46:45;;;;;;;;;;;;;;;9.57;59.24;102499.84;5017351;28;6787;-70
2022/01/23 07:49:11;;;;;;;;;;;;;;;9.61;59.59;102492.44;4991734;28;6817;-70
2022/01/23 07:51:37;;;;;;;;;;;;;;;9.62;58.74;102497.69;5023462;28;6967;-70
2022/01/23 07:54:03;;;;;;;;;;;;;;;9.62;59.05;102501.91;4987091;28;6816;-69
2022/01/23 07:56:28;;;;;;;;;;;;;;;9.63;59.65;102501.13;5032855;28;7035;-70
2022/01/23 07:58:54;;;;;;;;;;;;;;;9.64;59.88;102500.38;5022858;28;6827;-70
2022/01/23 08:01:20;;;;;;;;;;;;;;;9.63;58.91;102503.69;5027003;28;6811;-70
2022/01/23 08:03:45;;;;;;;;;;;;;;;9.62;59.48;102505.38;5041148;28;7164;-70
2022/01/23 08:06:12;;;;;;;;;;;;;;;9.61;58.95;102516.38;5030315;28;6812;-70
2022/01/23 08:08:39;;;;;;;;;;;;;;;9.57;59.14;102515.22;5021072;28;6978;-70
2022/01/23 08:11:07;;;;;;;;;;;;;;;9.57;59.69;102509.19;5017484;28;7292;-70
2022/01/23 08:13:32;;;;;;;;;;;;;;;9.54;59.13;102508.94;5031511;28;7093;-70
2022/01/23 08:15:59;;;;;;;;;;;;;;;9.52;59.83;102519.03;5023346;28;7477;-70
2022/01/23 08:18:25;;;;;;;;;;;;;;;9.50;59.86;102518.00;5024763;28;6828;-70
2022/01/23 08:20:51;;;;;;;;;;;;;;;9.49;59.67;102523.91;5028553;28;6823;-70
2022/01/23 08:23:18;;;;;;;;;;;;;;;9.50;60.07;102523.13;5051364;28;7307;-70
2022/01/23 08:25:43;;;;;;;;;;;;;;;9.51;59.87;102524.00;5039461;28;8069;-70
2022/01/23 08:28:09;;;;;;;;;;;;;;;9.55;59.06;102534.66;5021402;28;6779;-70
2022/01/23 08:30:35;;;;;;;;;;;;;;;9.62;60.17;102530.97;5041171;28;6998;-70
2022/01/23 08:33:00;;;;;;;;;;;;;;;9.66;60.00;102530.47;5034564;28;6882;-70
2022/01/23 08:35:28;;;;;;;;;;;;;;;9.69;59.65;102535.84;5030088;28;7302;-70
2022/01/23 08:37:54;;;;;;;;;;;;;;;9.68;59.73;102523.81;5028501;28;7291;-70
2022/01/23 08:40:44;;;;;;;;;;;;;;;9.69;59.74;102524.72;5019037;28;7172;-70
2022/01/23 08:43:10;;;;;;;;;;;;;;;9.69;59.47;102524.72;5038699;28;7014;-70
2022/01/23 08:45:35;;;;;;;;;;;;;;;9.71;58.97;102528.28;5024871;28;7450;-70
2022/01/23 08:48:01;;;;;;;;;;;;;;;9.72;59.16;102524.97;5025374;28;6811;-70
2022/01/23 08:50:27;;;;;;;;;;;;;;;9.73;58.78;102527.66;5038257;28;6863;-70
2022/01/23 08:52:52;;;;;;;;;;;;;;;9.76;59.76;102526.13;5003341;28;7277;-70
2022/01/23 08:55:19;;;;;;;;;;;;;;;9.78;59.23;102529.72;5007362;28;6990;-70
2022/01/23 08:57:45;;;;;;;;;;;;;;;9.81;59.72;102527.44;5011802;28;7000;-70
2022/01/23 09:00:11;;;;;;;;;;;;;;;9.82;59.59;102526.66;5035434;28;6846;-70
2022/01/23 09:02:37;;;;;;;;;;;;;;;9.86;59.68;102529.63;5024019;28;7026;-70
2022/01/23 09:05:03;;;;;;;;;;;;;;;9.90;59.62;102535.91;5023869;28;7291;-70
2022/01/23 09:07:28;;;;;;;;;;;;;;;9.93;59.22;102531.03;5034010;28;6780;-70
2022/01/23 09:10:01;;;;;;;;;;;;;;;9.99;59.27;102540.91;5036008;28;8105;-70
2022/01/23 09:14:55;;;;;;;;;;;;;;;10.09;59.96;102529.75;5006619;28;8156;-70
2022/01/23 09:17:21;;;;;;;;;;;;;;;10.19;59.83;102532.34;5019221;28;7168;-70
2022/01/23 09:19:47;;;;;;;;;;;;;;;10.31;59.38;102523.88;5023082;28;6863;-70
2022/01/23 09:22:14;;;;;;;;;;;;;;;10.39;59.37;102525.41;5037166;28;7154;-70
2022/01/23 09:24:41;;;;;;;;;;;;;;;10.49;59.34;102527.09;5010242;28;7019;-70
2022/01/23 09:27:12;;;;;;;;;;;;;;;10.58;59.34;102530.41;5007986;28;6945;-70
2022/01/23 09:29:41;;;;;;;;;;;;;;;10.67;58.83;102526.03;5039502;28;6973;-70
2022/01/23 09:32:12;;;;;;;;;;;;;;;10.77;58.65;102532.81;5024407;28;6820;-70
2022/01/23 09:34:41;;;;;;;;;;;;;;;10.86;57.96;102527.53;5021450;28;6954;-70
2022/01/23 09:37:11;;;;;;;;;;;;;;;10.94;58.14;102533.28;5011126;28;6851;-70
2022/01/23 09:39:41;;;;;;;;;;;;;;;10.99;58.14;102534.56;5014753;28;6808;-70
2022/01/23 09:42:17;;;;;;;;;;;;;;;11.03;58.38;102540.84;5037057;28;7454;-70
2022/01/23 09:44:58;;;;;;;;;;;;;;;11.08;57.92;102547.22;5049094;28;6970;-70
2022/01/23 09:47:25;;;;;;;;;;;;;;;11.12;57.79;102546.69;5007108;28;6837;-70
2022/01/23 09:49:54;;;;;;;;;;;;;;;11.17;57.70;102544.50;5020697;28;6812;-70
2022/01/23 09:52:21;;;;;;;;;;;;;;;11.23;57.91;102545.88;4998489;28;6829;-70
2022/01/23 09:55:00;;;;;;;;;;;;;;;11.31;57.67;102540.47;5015329;28;7181;-70
2022/01/23 09:57:30;;;;;;;;;;;;;;;11.38;57.49;102545.28;5026568;28;7923;-70
2022/01/23 10:00:00;;;;;;;;;;;;;;;11.42;57.00;102547.34;5017215;28;7892;-70
2022/01/23 10:02:28;;;;;;;;;;;;;;;11.42;56.82;102547.34;5020680;28;7342;-70
2022/01/23 10:04:55;;;;;;;;;;;;;;;11.44;57.04;102556.06;5005254;28;6808;-70
2022/01/23 10:07:21;;;;;;;;;;;;;;;11.47;56.90;102556.28;5020858;28;6827;-70
2022/01/23 10:09:54;;;;;;;;;;;;;;;11.50;57.38;102553.06;5018584;28;6796;-70
2022/01/23 10:12:26;;;;;;;;;;;;;;;11.55;56.71;102553.44;5054095;28;7000;-70
2022/01/23 10:14:54;;;;;;;;;;;;;;;11.58;56.18;102554.56;5030761;28;6828;-70
2022/01/23 10:17:19;;;;;;;;;;;;;;;11.60;56.07;102553.03;5022201;28;6898;-70
2022/01/23 10:19:46;;;;;;;;;;;;;;;11.65;56.74;102553.38;5020514;28;7098;-70
2022/01/23 10:22:12;;;;;;;;;;;;;;;11.70;56.54;102559.78;5028765;28;7873;-70
2022/01/23 10:24:38;;;;;;;;;;;;;;;11.73;56.09;102554.88;5021951;28;6892;-70
2022/01/23 10:27:04;;;;;;;;;;;;;;;11.75;55.81;102555.88;5018877;28;6858;-70
2022/01/23 10:29:36;;;;;;;;;;;;;;;11.78;56.21;102552.66;5027987;28;7113;-70
2022/01/23 10:32:21;;;;;;;;;;;;;;;11.84;56.04;102541.97;5029969;28;7032;-70
2022/01/23 10:34:59;;;;;;;;;;;;;;;11.90;55.51;102547.59;5003652;28;7602;-70
2022/01/23 10:37:34;;;;;;;;;;;;;;;11.98;55.63;102545.59;5040417;28;9466;-70
2022/01/23 10:40:32;;;;;;;;;;;;;;;12.03;55.59;102545.19;5027214;28;6811;-70
2022/01/23 10:50:53;;;;;;;;;;;;;;;12.04;55.51;102531.56;5021743;28;6912;-70
2022/01/23 10:53:19;;;;;;;;;;;;;;;12.03;55.07;102524.63;5019229;28;6899;-70
2022/01/23 10:55:45;;;;;;;;;;;;;;;12.07;54.86;102523.19;5055695;28;7199;-70
2022/01/23 10:58:24;;;;;;;;;;;;;;;12.07;55.15;102516.41;5040311;28;7033;-70
2022/01/23 11:00:50;;;;;;;;;;;;;;;12.12;54.62;102518.41;5035775;28;7358;-70
2022/01/23 11:03:17;;;;;;;;;;;;;;;12.14;54.97;102524.56;5032861;28;6789;-70
2022/01/23 11:05:44;;;;;;;;;;;;;;;12.17;55.14;102528.25;5022991;28;6967;-70
2022/01/23 11:08:30;;;;;;;;;;;;;;;12.15;54.17;102531.47;5022421;28;7063;-70
2022/01/23 11:11:08;;;;;;;;;;;;;;;12.11;54.51;102526.91;5023204;28;7047;-70
2022/01/23 11:19:35;;;;;;;;;;;;;;;12.12;54.81;102533.84;5021964;28;6816;-70
2022/01/23 11:22:04;;;;;;;;;;;;;;;12.12;54.25;102523.56;5036350;28;8091;-70
2022/01/23 11:24:42;;;;;;;;;;;;;;;12.14;54.57;102520.31;5021901;28;6844;-70
2022/01/23 11:27:08;;;;;;;;;;;;;;;12.17;54.17;102525.69;5004583;28;7306;-70
2022/01/23 11:29:34;;;;;;;;;;;;;;;12.17;53.56;102517.97;5061845;28;6987;-70
2022/01/23 11:32:00;;;;;;;;;;;;;;;12.11;53.46;102517.50;5026717;28;7017;-70
2022/01/23 11:34:29;;;;;;;;;;;;;;;12.07;54.13;102511.25;5026930;28;8050;-70
2022/01/23 11:36:55;;;;;;;;;;;;;;;12.01;53.78;102510.75;5021907;28;7033;-70
2022/01/23 11:39:48;;;;;;;;;;;;;;;11.99;53.81;102514.88;5033961;28;6811;-70
2022/01/23 11:53:45;;;;;;;;;;;;;;;12.08;54.10;102517.28;5035637;28;6969;-70
2022/01/23 11:56:31;;;;;;;;;;;;;;;12.12;53.95;102508.13;5063278;28;6816;-70
2022/01/23 11:59:28;;;;;;;;;;;;;;;12.12;53.52;102506.47;5036588;28;6816;-70
2022/01/23 12:02:12;;;;;;;;;;;;;;;12.13;53.70;102503.13;5023467;28;7140;-70
2022/01/23 12:04:40;;;;;;;;;;;;;;;12.13;53.50;102503.13;5037804;28;7138;-70
2022/01/23 12:07:08;;;;;;;;;;;;;;;12.14;53.77;102504.91;5033412;28;7243;-70
2022/01/23 12:09:34;;;;;;;;;;;;;;;12.19;53.46;102500.09;5039182;28;8125;-70
2022/01/23 12:18:29;;;;;;;;;;;;;;;12.30;52.78;102494.09;5032651;28;7083;-70
2022/01/23 12:20:55;;;;;;;;;;;;;;;12.32;53.02;102492.50;5031574;28;7022;-70
2022/01/23 12:23:22;;;;;;;;;;;;;;;12.38;53.19;102483.47;5030902;28;6838;-70
2022/01/23 12:25:52;;;;;;;;;;;;;;;12.43;52.82;102487.28;5023513;28;6799;-70
2022/01/23 12:28:42;;;;;;;;;;;;;;;12.49;53.54;102490.31;5028401;28;6999;-70
2022/01/23 12:31:14;;;;;;;;;;;;;;;12.50;52.62;102486.94;5057511;28;6835;-70
2022/01/23 12:33:39;;;;;;;;;;;;;;;12.47;52.64;102474.75;5039089;28;6856;-70
2022/01/23 12:36:29;;;;;;;;;;;;;;;12.50;52.80;102479.22;5041202;28;6776;-70
2022/01/23 12:39:07;;;;;;;;;;;;;;;12.48;51.98;102468.81;5038970;28;7234;-70
2022/01/23 12:41:46;;;;;;;;;;;;;;;12.50;52.46;102467.25;5026147;28;7320;-71
2022/01/23 12:44:24;;;;;;;;;;;;;;;12.50;52.52;102468.94;5040267;28;6879;-70
2022/01/23 12:46:54;;;;;;;;;;;;;;;12.50;52.45;102469.81;5035917;28;7031;-70
2022/01/23 12:49:23;;;;;;;;;;;;;;;12.52;52.14;102467.38;5020430;28;6808;-70
2022/01/23 12:51:56;;;;;;;;;;;;;;;12.53;51.98;102466.59;5040099;28;7940;-70
2022/01/23 12:54:29;;;;;;;;;;;;;;;12.57;52.72;102460.91;5035148;28;7891;-70
2022/01/23 12:56:56;;;;;;;;;;;;;;;12.62;52.25;102454.41;5035247;28;6997;-70
2022/01/23 12:59:32;;;;;;;;;;;;;;;12.69;52.79;102448.00;5014933;28;7281;-70
2022/01/23 13:02:04;;;;;;;;;;;;;;;12.73;51.99;102446.56;5021057;28;6815;-70
2022/01/23 13:04:41;;;;;;;;;;;;;;;12.73;51.97;102444.88;5027278;28;6832;-70
2022/01/23 13:07:19;;;;;;;;;;;;;;;12.71;52.66;102443.88;5015282;28;6895;-70
2022/01/23 13:09:58;;;;;;;;;;;;;;;12.70;51.74;102443.78;5018838;28;6820;-70
2022/01/23 13:31:59;;;;;;;;;;;;;;;12.58;51.53;102430.91;5019462;28;6969;-71
2022/01/23 13:34:45;;;;;;;;;;;;;;;12.62;51.97;102431.25;4993647;28;6808;-71
2022/01/23 13:37:16;;;;;;;;;;;;;;;12.61;51.81;102434.59;5026865;28;6807;-71
2022/01/23 13:39:49;;;;;;;;;;;;;;;12.57;51.01;102430.03;5036612;28;7144;-71
2022/01/23 13:59:29;;;;;;;;;;;;;;;12.20;51.51;102424.78;5044007;28;7005;-70
2022/01/23 14:04:40;;;;;;;;;;;;;;;12.13;51.77;102427.66;5039629;28;7133;-70
2022/01/23 14:07:06;;;;;;;;;;;;;;;12.10;52.56;102424.88;5031112;28;6807;-70
2022/01/23 14:09:45;;;;;;;;;;;;;;;12.04;52.36;102418.47;5028215;28;7231;-70
2022/01/23 14:12:16;;;;;;;;;;;;;;;12.03;52.02;102424.41;5032249;28;7144;-70
2022/01/23 14:15:16;;;;;;;;;;;;;;;12.00;52.21;102426.72;5029383;28;6856;-70
2022/01/23 14:17:55;;;;;;;;;;;;;;;11.98;52.37;102428.28;5028373;28;6824;-70
2022/01/23 14:20:23;;;;;;;;;;;;;;;11.96;52.43;102427.25;5031917;28;7166;-70
2022/01/23 14:22:49;;;;;;;;;;;;;;;11.93;52.97;102425.38;5024775;28;7070;-71
2022/01/23 14:25:19;;;;;;;;;;;;;;;11.88;52.88;102423.22;5019216;28;6831;-70
2022/01/23 14:28:00;;;;;;;;;;;;;;;11.82;53.06;102428.78;5036558;28;7113;-70
2022/01/23 14:30:29;;;;;;;;;;;;;;;11.75;53.02;102426.56;5012484;28;6824;-70
2022/01/23 14:33:04;;;;;;;;;;;;;;;11.70;52.93;102431.34;5012085;28;6812;-71
2022/01/23 14:35:33;;;;;;;;;;;;;;;11.66;52.96;102424.16;5019204;28;7236;-71
2022/01/23 14:38:27;;;;;;;;;;;;;;;11.64;53.66;102434.34;5035729;28;6835;-70
2022/01/23 14:41:01;;;;;;;;;;;;;;;11.60;53.63;102432.31;5001679;28;7247;-70
2022/01/23 14:43:39;;;;;;;;;;;;;;;11.58;53.91;102438.09;5016794;28;6816;-70
2022/01/23 14:46:09;;;;;;;;;;;;;;;11.53;53.82;102436.09;5016000;28;6973;-70
2022/01/23 14:48:43;;;;;;;;;;;;;;;11.53;53.67;102433.50;5019930;28;6816;-70
2022/01/23 14:51:10;;;;;;;;;;;;;;;11.55;53.94;102437.88;5024404;28;6918;-70
2022/01/23 14:53:39;;;;;;;;;;;;;;;11.53;53.38;102445.44;5024661;28;6823;-70
2022/01/23 14:56:10;;;;;;;;;;;;;;;11.50;54.01;102438.44;5019652;28;7342;-70
2022/01/23 14:58:37;;;;;;;;;;;;;;;11.47;54.14;102434.72;5040532;28;6823;-70
2022/01/23 15:01:07;;;;;;;;;;;;;;;11.44;54.20;102435.38;5016531;28;6903;-70
2022/01/23 15:03:33;;;;;;;;;;;;;;;11.38;53.92;102433.22;5006916;28;7258;-70
2022/01/23 15:06:02;;;;;;;;;;;;;;;11.34;53.95;102436.31;5019569;28;7170;-70
2022/01/23 15:08:29;;;;;;;;;;;;;;;11.29;54.34;102429.94;5003794;28;6901;-70
2022/01/23 15:10:59;;;;;;;;;;;;;;;11.27;54.15;102430.59;5055943;28;7245;-70
2022/01/23 15:13:26;;;;;;;;;;;;;;;11.23;54.73;102430.38;4999273;28;7249;-70
2022/01/23 15:15:55;;;;;;;;;;;;;;;11.22;54.28;102425.09;5054438;28;6990;-70
2022/01/23 15:18:21;;;;;;;;;;;;;;;11.19;54.88;102430.88;5036932;28;6816;-70
2022/01/23 15:20:48;;;;;;;;;;;;;;;11.17;55.04;102429.88;5019902;28;7071;-70
2022/01/23 15:23:14;;;;;;;;;;;;;;;11.20;54.80;102431.81;5016056;28;6875;-70
2022/01/23 15:25:43;;;;;;;;;;;;;;;11.21;54.56;102424.22;5015832;28;6803;-70
2022/01/23 15:28:10;;;;;;;;;;;;;;;11.23;54.81;102432.94;5016949;28;6966;-70
2022/01/23 15:30:36;;;;;;;;;;;;;;;11.23;54.79;102427.81;5015715;28;6799;-71
2022/01/23 15:33:09;;;;;;;;;;;;;;;11.22;54.57;102431.16;5021356;28;6803;-71
2022/01/23 15:35:43;;;;;;;;;;;;;;;11.20;54.43;102419.88;5004530;28;6876;-70
2022/01/23 15:38:09;;;;;;;;;;;;;;;11.19;55.12;102423.19;5019531;28;7378;-70
2022/01/23 15:40:35;;;;;;;;;;;;;;;11.18;54.63;102423.09;5009548;28;6801;-70
2022/01/23 15:43:01;;;;;;;;;;;;;;;11.15;55.12;102422.84;5038891;28;7017;-70
2022/01/23 15:45:27;;;;;;;;;;;;;;;11.12;54.96;102426.09;5013379;28;6949;-70
2022/01/23 15:47:52;;;;;;;;;;;;;;;11.09;54.72;102429.28;5035622;28;6947;-70
2022/01/23 15:50:19;;;;;;;;;;;;;;;11.07;54.97;102425.72;5038442;28;8005;-70
2022/01/23 15:52:47;;;;;;;;;;;;;;;11.06;54.92;102428.16;5002597;28;7062;-70
2022/01/23 15:55:15;;;;;;;;;;;;;;;11.05;54.95;102432.38;5032522;28;6950;-70
2022/01/23 15:57:42;;;;;;;;;;;;;;;11.03;55.33;102425.34;5028682;28;7010;-70
2022/01/23 16:00:12;;;;;;;;;;;;;;;11.03;54.92;102433.06;5027195;28;6879;-70
2022/01/23 16:02:40;;;;;;;;;;;;;;;11.01;55.00;102429.44;5012266;28;6803;-70
2022/01/23 16:05:06;;;;;;;;;;;;;;;10.99;55.14;102426.78;5042827;28;7088;-70
2022/01/23 16:07:32;;;;;;;;;;;;;;;10.97;54.92;102430.91;5031033;28;6797;-70
2022/01/23 16:09:58;;;;;;;;;;;;;;;10.95;55.36;102438.47;5019418;28;7227;-70
2022/01/23 16:12:24;;;;;;;;;;;;;;;10.92;54.97;102434.75;5037408;28;6946;-71
2022/01/23 16:14:49;;;;;;;;;;;;;;;10.91;55.38;102432.97;5040557;28;6796;-70
2022/01/23 16:17:15;;;;;;;;;;;;;;;10.87;55.26;102429.25;5028446;28;7429;-70
2022/01/23 16:19:41;;;;;;;;;;;;;;;10.83;55.59;102438.38;5022225;28;7281;-70
2022/01/23 16:22:06;;;;;;;;;;;;;;;10.80;54.98;102439.81;5025755;28;6998;-70
2022/01/23 16:24:32;;;;;;;;;;;;;;;10.77;55.78;102431.88;5007707;28;6950;-71
2022/01/23 16:26:58;;;;;;;;;;;;;;;10.75;55.83;102430.88;5037244;28;7201;-71
2022/01/23 16:29:26;;;;;;;;;;;;;;;10.72;55.70;102433.16;5023321;28;6785;-71
2022/01/23 16:31:59;;;;;;;;;;;;;;;10.70;55.83;102433.06;5012324;28;6803;-70
2022/01/23 16:34:29;;;;;;;;;;;;;;;10.67;55.98;102431.13;5029263;28;6827;-70
2022/01/23 16:36:56;;;;;;;;;;;;;;;10.64;56.32;102427.44;5029578;28;6836;-70